sensor_id;sensor_type;location;lat;lon;timestamp;pressure;altitude;pressure_sealevel;temperature;humidity
62111;BME280;48102;47.526;19.072;2023-07-31T05:37:10;100193.25;;;18.56;100.00
62111;BME280;48102;47.526;19.072;2023-07-31T05:40:15;100199.00;;;18.73;100.00
62111;BME280;48102;47.526;19.072;2023-07-31T05:43:17;100195.41;;;19.04;100.00
62111;BME280;48102;47.526;19.072;2023-07-31T05:46:20;100180.84;;;19.28;100.00
62111;BME280;48102;47.526;19.072;2023-07-31T05:49:23;100187.28;;;19.25;100.00
62111;BME280;48102;47.526;19.072;2023-07-31T05:52:25;100190.44;;;19.30;100.00
62111;BME280;48102;47.526;19.072;2023-07-31T05:55:28;100204.13;;;19.57;100.00
62111;BME280;48102;47.526;19.072;2023-07-31T05:58:31;100211.78;;;19.80;100.00
62111;BME280;48102;47.526;19.072;2023-07-31T06:01:34;100209.41;;;19.97;100.00
62111;BME280;48102;47.526;19.072;2023-07-31T06:04:37;100209.72;;;20.03;100.00
62111;BME280;48102;47.526;19.072;2023-07-31T06:07:40;100208.56;;;20.06;100.00
62111;BME280;48102;47.526;19.072;2023-07-31T06:10:43;100215.91;;;20.14;100.00
62111;BME280;48102;47.526;19.072;2023-07-31T06:13:46;100211.38;;;20.43;98.78
62111;BME280;48102;47.526;19.072;2023-07-31T06:16:50;100212.94;;;20.56;100.00
62111;BME280;48102;47.526;19.072;2023-07-31T06:19:53;100217.72;;;20.62;98.27
62111;BME280;48102;47.526;19.072;2023-07-31T06:22:57;100215.59;;;20.65;94.42
62111;BME280;48102;47.526;19.072;2023-07-31T06:25:59;100216.56;;;20.74;95.34
62111;BME280;48102;47.526;19.072;2023-07-31T06:29:02;100221.28;;;20.99;94.82
62111;BME280;48102;47.526;19.072;2023-07-31T06:32:05;100219.75;;;21.34;90.54
62111;BME280;48102;47.526;19.072;2023-07-31T06:35:08;100213.56;;;21.97;94.92
62111;BME280;48102;47.526;19.072;2023-07-31T06:38:11;100218.56;;;22.45;97.92
62111;BME280;48102;47.526;19.072;2023-07-31T06:41:14;100214.78;;;22.82;83.79
62111;BME280;48102;47.526;19.072;2023-07-31T06:44:17;100209.63;;;22.63;85.66
62111;BME280;48102;47.526;19.072;2023-07-31T06:47:19;100216.47;;;22.83;92.60
62111;BME280;48102;47.526;19.072;2023-07-31T06:50:22;100218.31;;;23.09;82.85
62111;BME280;48102;47.526;19.072;2023-07-31T06:53:25;100220.63;;;22.77;87.77
62111;BME280;48102;47.526;19.072;2023-07-31T06:56:28;100212.25;;;22.81;82.11
62111;BME280;48102;47.526;19.072;2023-07-31T06:59:30;100216.78;;;22.54;89.15
62111;BME280;48102;47.526;19.072;2023-07-31T07:02:33;100224.09;;;22.70;86.77
62111;BME280;48102;47.526;19.072;2023-07-31T07:05:36;100225.84;;;22.79;87.37
62111;BME280;48102;47.526;19.072;2023-07-31T07:08:39;100228.16;;;22.74;82.52
62111;BME280;48102;47.526;19.072;2023-07-31T07:11:42;100225.09;;;22.69;91.75
62111;BME280;48102;47.526;19.072;2023-07-31T07:14:44;100230.41;;;22.61;88.29
62111;BME280;48102;47.526;19.072;2023-07-31T07:17:50;100239.22;;;22.71;88.24
62111;BME280;48102;47.526;19.072;2023-07-31T07:20:53;100241.09;;;22.52;86.86
62111;BME280;48102;47.526;19.072;2023-07-31T07:23:56;100245.00;;;22.58;85.84
62111;BME280;48102;47.526;19.072;2023-07-31T07:26:59;100234.69;;;22.71;88.20
62111;BME280;48102;47.526;19.072;2023-07-31T07:30:02;100243.28;;;22.93;84.42
62111;BME280;48102;47.526;19.072;2023-07-31T07:33:06;100234.63;;;23.07;82.14
62111;BME280;48102;47.526;19.072;2023-07-31T07:36:09;100243.59;;;23.24;80.32
62111;BME280;48102;47.526;19.072;2023-07-31T07:39:12;100243.34;;;23.43;74.81
62111;BME280;48102;47.526;19.072;2023-07-31T07:42:15;100245.50;;;23.32;77.43
62111;BME280;48102;47.526;19.072;2023-07-31T07:45:18;100239.47;;;23.38;77.47
62111;BME280;48102;47.526;19.072;2023-07-31T07:48:21;100243.69;;;23.40;67.34
62111;BME280;48102;47.526;19.072;2023-07-31T07:51:24;100233.66;;;23.16;72.06
62111;BME280;48102;47.526;19.072;2023-07-31T07:54:27;100235.22;;;23.01;73.07
62111;BME280;48102;47.526;19.072;2023-07-31T07:57:30;100233.00;;;22.70;72.69
62111;BME280;48102;47.526;19.072;2023-07-31T08:00:33;100224.63;;;22.29;74.13
62111;BME280;48102;47.526;19.072;2023-07-31T08:03:36;100227.00;;;22.15;73.74
62111;BME280;48102;47.526;19.072;2023-07-31T08:06:39;100230.37;;;21.99;82.74
62111;BME280;48102;47.526;19.072;2023-07-31T08:09:43;100224.38;;;21.87;74.76
62111;BME280;48102;47.526;19.072;2023-07-31T08:12:45;100224.88;;;22.18;78.14
62111;BME280;48102;47.526;19.072;2023-07-31T08:15:48;100226.53;;;22.55;73.44
62111;BME280;48102;47.526;19.072;2023-07-31T08:18:51;100228.13;;;22.92;72.50
62111;BME280;48102;47.526;19.072;2023-07-31T08:21:54;100230.59;;;23.11;66.27
62111;BME280;48102;47.526;19.072;2023-07-31T08:25:00;100230.69;;;23.27;68.21
62111;BME280;48102;47.526;19.072;2023-07-31T08:28:03;100230.25;;;23.48;66.45
62111;BME280;48102;47.526;19.072;2023-07-31T08:31:07;100224.19;;;23.46;61.10
62111;BME280;48102;47.526;19.072;2023-07-31T08:34:10;100234.38;;;23.69;61.72
62111;BME280;48102;47.526;19.072;2023-07-31T08:37:12;100223.66;;;23.77;61.81
62111;BME280;48102;47.526;19.072;2023-07-31T08:40:15;100226.25;;;23.61;56.97
62111;BME280;48102;47.526;19.072;2023-07-31T08:43:18;100223.06;;;23.49;61.71
62111;BME280;48102;47.526;19.072;2023-07-31T08:46:23;100226.69;;;23.82;60.02
62111;BME280;48102;47.526;19.072;2023-07-31T08:49:27;100218.16;;;24.03;59.82
62111;BME280;48102;47.526;19.072;2023-07-31T08:52:30;100237.31;;;24.00;54.80
62111;BME280;48102;47.526;19.072;2023-07-31T08:55:32;100233.47;;;24.02;60.75
62111;BME280;48102;47.526;19.072;2023-07-31T08:58:35;100217.63;;;23.99;56.31
62111;BME280;48102;47.526;19.072;2023-07-31T09:01:43;100217.81;;;24.06;58.57
62111;BME280;48102;47.526;19.072;2023-07-31T09:04:46;100219.34;;;24.33;56.95
62111;BME280;48102;47.526;19.072;2023-07-31T09:07:49;100211.62;;;24.38;58.10
62111;BME280;48102;47.526;19.072;2023-07-31T09:10:52;100212.66;;;24.37;56.98
62111;BME280;48102;47.526;19.072;2023-07-31T09:13:57;100218.53;;;24.41;54.75
62111;BME280;48102;47.526;19.072;2023-07-31T09:17:00;100218.88;;;24.54;54.02
62111;BME280;48102;47.526;19.072;2023-07-31T09:23:14;100216.63;;;24.74;55.85
62111;BME280;48102;47.526;19.072;2023-07-31T09:26:30;100222.19;;;24.81;53.79
62111;BME280;48102;47.526;19.072;2023-07-31T09:29:33;100221.19;;;24.82;53.67
62111;BME280;48102;47.526;19.072;2023-07-31T09:32:35;100224.06;;;24.72;54.35
62111;BME280;48102;47.526;19.072;2023-07-31T09:35:41;100204.66;;;24.85;57.28
62111;BME280;48102;47.526;19.072;2023-07-31T09:38:43;100211.22;;;24.90;57.29
62111;BME280;48102;47.526;19.072;2023-07-31T09:41:54;100211.03;;;25.00;53.26
62111;BME280;48102;47.526;19.072;2023-07-31T09:45:07;100206.31;;;25.02;53.86
62111;BME280;48102;47.526;19.072;2023-07-31T09:48:18;100200.75;;;24.95;53.45
62111;BME280;48102;47.526;19.072;2023-07-31T09:51:26;100198.25;;;24.94;50.80
62111;BME280;48102;47.526;19.072;2023-07-31T09:54:30;100188.78;;;25.14;52.39
62111;BME280;48102;47.526;19.072;2023-07-31T09:57:33;100190.50;;;25.38;52.08
62111;BME280;48102;47.526;19.072;2023-07-31T10:00:36;100205.50;;;25.41;50.43
62111;BME280;48102;47.526;19.072;2023-07-31T10:03:40;100195.34;;;25.51;51.84
62111;BME280;48102;47.526;19.072;2023-07-31T10:06:45;100195.53;;;25.49;50.56
62111;BME280;48102;47.526;19.072;2023-07-31T10:09:49;100193.84;;;25.48;50.15
62111;BME280;48102;47.526;19.072;2023-07-31T10:12:53;100200.97;;;25.41;49.05
62111;BME280;48102;47.526;19.072;2023-07-31T10:15:59;100199.44;;;25.39;50.47
62111;BME280;48102;47.526;19.072;2023-07-31T10:19:02;100185.78;;;25.40;49.72
62111;BME280;48102;47.526;19.072;2023-07-31T10:22:05;100189.06;;;25.59;50.26
62111;BME280;48102;47.526;19.072;2023-07-31T10:25:09;100203.47;;;25.82;47.20
62111;BME280;48102;47.526;19.072;2023-07-31T10:28:12;100195.78;;;25.94;47.43
62111;BME280;48102;47.526;19.072;2023-07-31T10:31:16;100184.44;;;25.98;49.40
62111;BME280;48102;47.526;19.072;2023-07-31T10:34:19;100193.75;;;26.19;46.83
62111;BME280;48102;47.526;19.072;2023-07-31T10:37:23;100178.12;;;26.06;47.62
62111;BME280;48102;47.526;19.072;2023-07-31T10:40:27;100179.81;;;26.07;48.83
62111;BME280;48102;47.526;19.072;2023-07-31T10:43:32;100183.91;;;26.26;48.95
62111;BME280;48102;47.526;19.072;2023-07-31T10:46:38;100177.31;;;26.43;48.71
62111;BME280;48102;47.526;19.072;2023-07-31T10:49:44;100167.59;;;26.57;48.82
62111;BME280;48102;47.526;19.072;2023-07-31T10:52:52;100165.19;;;26.77;47.42
62111;BME280;48102;47.526;19.072;2023-07-31T10:55:59;100178.50;;;26.93;47.66
62111;BME280;48102;47.526;19.072;2023-07-31T10:59:02;100179.44;;;27.00;47.37
62111;BME280;48102;47.526;19.072;2023-07-31T11:02:24;100179.34;;;27.09;47.56
62111;BME280;48102;47.526;19.072;2023-07-31T11:05:48;100172.72;;;27.41;46.28
62111;BME280;48102;47.526;19.072;2023-07-31T11:08:51;100178.56;;;27.59;44.82
62111;BME280;48102;47.526;19.072;2023-07-31T11:11:54;100173.13;;;27.74;45.71
62111;BME280;48102;47.526;19.072;2023-07-31T11:14:57;100174.47;;;27.85;45.50
62111;BME280;48102;47.526;19.072;2023-07-31T11:18:00;100160.66;;;28.22;44.51
62111;BME280;48102;47.526;19.072;2023-07-31T11:21:06;100158.09;;;28.36;42.31
62111;BME280;48102;47.526;19.072;2023-07-31T11:24:12;100154.94;;;28.60;42.35
62111;BME280;48102;47.526;19.072;2023-07-31T11:27:14;100150.03;;;28.21;41.20
62111;BME280;48102;47.526;19.072;2023-07-31T11:30:19;100144.59;;;28.21;39.66
62111;BME280;48102;47.526;19.072;2023-07-31T11:33:22;100149.78;;;28.16;42.40
62111;BME280;48102;47.526;19.072;2023-07-31T11:36:25;100143.94;;;28.40;41.59
62111;BME280;48102;47.526;19.072;2023-07-31T11:39:28;100141.66;;;28.37;40.32
62111;BME280;48102;47.526;19.072;2023-07-31T11:42:31;100138.44;;;28.55;41.55
62111;BME280;48102;47.526;19.072;2023-07-31T11:45:34;100140.16;;;28.97;40.34
62111;BME280;48102;47.526;19.072;2023-07-31T11:48:38;100137.22;;;29.47;40.21
62111;BME280;48102;47.526;19.072;2023-07-31T11:51:40;100130.62;;;29.76;38.52
62111;BME280;48102;47.526;19.072;2023-07-31T11:54:43;100139.44;;;29.85;38.97
62111;BME280;48102;47.526;19.072;2023-07-31T11:57:46;100142.31;;;29.83;39.41
62111;BME280;48102;47.526;19.072;2023-07-31T12:00:50;100138.81;;;30.42;37.77
62111;BME280;48102;47.526;19.072;2023-07-31T12:03:53;100132.72;;;30.60;37.48
62111;BME280;48102;47.526;19.072;2023-07-31T12:06:56;100135.16;;;31.02;36.64
62111;BME280;48102;47.526;19.072;2023-07-31T12:10:00;100134.59;;;32.08;35.43
62111;BME280;48102;47.526;19.072;2023-07-31T12:13:19;100120.94;;;32.76;34.95
62111;BME280;48102;47.526;19.072;2023-07-31T12:16:26;100124.56;;;33.74;32.72
62111;BME280;48102;47.526;19.072;2023-07-31T12:19:29;100114.13;;;35.40;31.38
62111;BME280;48102;47.526;19.072;2023-07-31T12:22:33;100109.78;;;37.94;27.40
62111;BME280;48102;47.526;19.072;2023-07-31T12:25:36;100107.31;;;39.50;25.65
62111;BME280;48102;47.526;19.072;2023-07-31T12:28:47;100115.06;;;40.65;24.43
62111;BME280;48102;47.526;19.072;2023-07-31T12:31:50;100104.03;;;41.69;22.92
62111;BME280;48102;47.526;19.072;2023-07-31T12:34:53;100095.28;;;42.20;22.51
62111;BME280;48102;47.526;19.072;2023-07-31T12:37:56;100104.25;;;43.51;22.35
62111;BME280;48102;47.526;19.072;2023-07-31T12:41:01;100099.19;;;44.04;20.63
62111;BME280;48102;47.526;19.072;2023-07-31T12:44:04;100094.00;;;45.27;18.57
62111;BME280;48102;47.526;19.072;2023-07-31T12:47:07;100085.00;;;45.44;18.05
62111;BME280;48102;47.526;19.072;2023-07-31T12:50:09;100091.87;;;46.93;18.22
62111;BME280;48102;47.526;19.072;2023-07-31T12:53:13;100080.84;;;46.80;18.13
62111;BME280;48102;47.526;19.072;2023-07-31T12:56:15;100063.34;;;47.05;17.89
62111;BME280;48102;47.526;19.072;2023-07-31T12:59:20;100061.31;;;46.00;18.06
62111;BME280;48102;47.526;19.072;2023-07-31T13:02:22;100065.47;;;47.08;18.16
62111;BME280;48102;47.526;19.072;2023-07-31T13:05:28;100060.84;;;45.53;16.86
62111;BME280;48102;47.526;19.072;2023-07-31T13:11:43;100062.81;;;48.96;17.01
62111;BME280;48102;47.526;19.072;2023-07-31T13:14:46;100062.81;;;48.96;17.01
62111;BME280;48102;47.526;19.072;2023-07-31T13:17:49;100043.78;;;48.60;16.53
62111;BME280;48102;47.526;19.072;2023-07-31T13:20:52;100053.72;;;48.78;15.03
62111;BME280;48102;47.526;19.072;2023-07-31T13:23:55;100041.94;;;48.34;15.88
62111;BME280;48102;47.526;19.072;2023-07-31T13:27:00;100032.31;;;47.24;17.23
62111;BME280;48102;47.526;19.072;2023-07-31T13:31:19;100025.31;;;49.84;15.39
